Time;durP1;ratioP1;P1;durP2;ratioP2;P2;SDS_P1;SDS_P2;PMS_P1;PMS_P2;Temp;Humidity;BMP_temperature;BMP_pressure;BME280_temperature;BME280_humidity;BME280_pressure;Samples;Min_cycle;Max_cycle;Signal;HPM_P1;HPM_P2
2022/03/21 00:00:40;;;;;;;9.10;5.78;;;7.90;63.70;;;;;;5035016;28;20407;-67
2022/03/21 00:03:07;;;;;;;6.53;5.82;;;7.80;63.70;;;;;;5034662;28;20181;-68
2022/03/21 00:05:33;;;;;;;6.95;4.45;;;7.80;63.90;;;;;;5034719;28;20674;-67
2022/03/21 00:07:59;;;;;;;4.78;4.32;;;7.80;63.90;;;;;;5034940;28;20176;-68
2022/03/21 00:10:25;;;;;;;10.10;6.23;;;7.70;63.80;;;;;;5034910;28;20694;-67
2022/03/21 00:12:51;;;;;;;5.53;3.93;;;7.70;64.00;;;;;;5015057;28;20654;-68
2022/03/21 00:15:17;;;;;;;4.90;4.45;;;7.70;64.10;;;;;;5014542;28;20423;-68
2022/03/21 00:17:43;;;;;;;6.13;4.65;;;7.70;63.90;;;;;;5014873;28;20170;-68
2022/03/21 00:20:11;;;;;;;5.40;4.30;;;7.70;63.90;;;;;;5013543;28;20204;-68
2022/03/21 00:22:37;;;;;;;8.00;4.82;;;7.60;63.90;;;;;;5014553;28;20639;-67
2022/03/21 00:25:08;;;;;;;6.03;5.25;;;7.60;64.20;;;;;;5014222;28;20714;-68
2022/03/21 00:27:36;;;;;;;6.15;5.30;;;7.60;64.30;;;;;;5033701;28;20173;-67
2022/03/21 00:30:03;;;;;;;5.35;4.40;;;7.50;64.40;;;;;;5034319;28;20756;-66
2022/03/21 00:32:29;;;;;;;7.53;5.88;;;7.50;64.70;;;;;;5034107;28;20661;-67
2022/03/21 00:34:54;;;;;;;7.30;4.53;;;7.40;64.90;;;;;;5032517;28;20207;-66
2022/03/21 00:37:23;;;;;;;6.60;5.87;;;7.40;65.40;;;;;;5034313;28;20252;-67
2022/03/21 00:39:49;;;;;;;8.82;6.03;;;7.30;65.50;;;;;;5032955;28;20253;-67
2022/03/21 00:42:15;;;;;;;7.63;5.60;;;7.20;65.60;;;;;;5013718;28;20664;-67
2022/03/21 00:44:40;;;;;;;7.27;5.00;;;7.20;65.70;;;;;;5013782;28;20203;-68
2022/03/21 00:47:06;;;;;;;4.83;4.27;;;7.10;65.80;;;;;;5014340;28;20561;-68
2022/03/21 00:49:32;;;;;;;6.90;4.37;;;7.10;65.80;;;;;;5023706;28;20176;-67
2022/03/21 00:51:57;;;;;;;5.03;4.20;;;7.00;65.70;;;;;;5033966;28;20302;-68
2022/03/21 00:54:23;;;;;;;11.30;6.13;;;7.00;65.70;;;;;;5033459;28;20167;-68
2022/03/21 00:56:49;;;;;;;7.57;5.00;;;7.00;65.80;;;;;;5034052;28;20168;-69
2022/03/21 00:59:14;;;;;;;5.40;4.90;;;6.90;65.90;;;;;;5033878;28;20395;-68
2022/03/21 01:01:40;;;;;;;6.83;4.13;;;7.00;65.80;;;;;;5033696;28;20207;-69
2022/03/21 01:04:06;;;;;;;5.80;5.20;;;6.90;65.70;;;;;;5024767;28;20693;-67
2022/03/21 01:06:31;;;;;;;6.57;5.90;;;6.90;65.70;;;;;;5014042;28;20234;-68
2022/03/21 01:08:57;;;;;;;6.03;5.07;;;6.90;65.70;;;;;;5014075;28;20185;-66
2022/03/21 01:11:23;;;;;;;4.40;4.00;;;6.90;65.80;;;;;;5014103;28;20228;-69
2022/03/21 01:13:50;;;;;;;5.73;5.20;;;6.90;65.80;;;;;;5013682;28;20497;-67
2022/03/21 01:16:15;;;;;;;8.50;5.57;;;6.90;65.70;;;;;;5013962;28;20205;-67
2022/03/21 01:18:45;;;;;;;6.87;5.00;;;6.80;65.70;;;;;;5020806;28;20178;-69
2022/03/21 01:21:12;;;;;;;6.20;3.92;;;6.80;65.80;;;;;;5033694;28;20405;-67
2022/03/21 01:23:38;;;;;;;8.80;4.55;;;6.80;66.20;;;;;;5033117;28;20195;-68
2022/03/21 01:26:04;;;;;;;13.75;5.85;;;6.70;66.30;;;;;;5014412;28;20596;-68
2022/03/21 01:28:30;;;;;;;5.50;4.20;;;6.70;66.70;;;;;;5013724;28;20195;-68
2022/03/21 01:30:55;;;;;;;6.40;5.20;;;6.70;67.00;;;;;;5013831;28;20445;-68
2022/03/21 01:33:21;;;;;;;5.87;4.13;;;6.60;67.10;;;;;;5013356;28;20169;-67
2022/03/21 01:35:47;;;;;;;8.40;4.33;;;6.60;67.30;;;;;;5013588;28;20727;-68
2022/03/21 01:38:12;;;;;;;7.90;4.30;;;6.50;68.00;;;;;;5013778;28;20254;-68
2022/03/21 01:40:38;;;;;;;8.70;5.60;;;6.60;68.30;;;;;;5030737;28;20534;-68
2022/03/21 01:43:10;;;;;;;6.18;5.32;;;6.40;68.40;;;;;;5033123;28;20174;-73
2022/03/21 01:45:36;;;;;;;7.53;4.75;;;6.40;69.00;;;;;;5033308;28;20218;-69
2022/03/21 01:48:02;;;;;;;5.30;4.63;;;6.40;69.10;;;;;;5033439;28;20521;-67
2022/03/21 01:50:28;;;;;;;8.10;4.53;;;6.40;69.30;;;;;;5033275;28;20458;-68
2022/03/21 01:55:43;;;;;;;5.90;4.83;;;6.30;69.30;;;;;;5033544;28;20413;-68
2022/03/21 01:55:44;;;;;;;6.30;4.28;;;6.30;69.50;;;;;;5028308;28;20262;-69
2022/03/21 01:58:11;;;;;;;9.05;5.10;;;6.30;69.50;;;;;;5033152;28;20167;-67
2022/03/21 02:00:37;;;;;;;7.20;3.90;;;6.20;71.00;;;;;;5033308;28;20220;-67
2022/03/21 02:03:03;;;;;;;10.50;5.25;;;6.20;70.60;;;;;;5032973;28;20190;-68
2022/03/21 02:05:29;;;;;;;6.63;5.43;;;6.00;71.50;;;;;;5032859;28;20216;-67
2022/03/21 02:07:55;;;;;;;4.90;4.15;;;6.00;72.00;;;;;;5033518;28;20162;-68
2022/03/21 02:10:21;;;;;;;9.53;5.30;;;5.90;72.20;;;;;;5013463;28;20699;-68
2022/03/21 02:12:46;;;;;;;4.57;3.80;;;5.80;72.80;;;;;;5013346;28;20178;-68
2022/03/21 02:15:12;;;;;;;7.10;6.40;;;5.80;72.90;;;;;;5012976;28;20940;-69
2022/03/21 02:17:42;;;;;;;7.30;4.97;;;5.70;73.00;;;;;;5014053;28;20241;-68
2022/03/21 02:20:09;;;;;;;4.05;3.70;;;5.60;73.00;;;;;;5017440;28;20172;-68
2022/03/21 02:22:56;;;;;;;6.93;4.93;;;5.60;73.10;;;;;;5016987;28;20691;-68
2022/03/21 02:25:30;;;;;;;5.43;4.65;;;5.60;73.30;;;;;;5016715;28;20576;-67
2022/03/21 02:27:58;;;;;;;5.47;5.00;;;5.50;74.20;;;;;;5023745;28;20210;-68
2022/03/21 02:30:28;;;;;;;6.45;4.55;;;5.40;74.50;;;;;;5025537;28;20183;-69
2022/03/21 02:32:55;;;;;;;6.63;5.25;;;5.40;75.10;;;;;;5017018;28;20163;-68
2022/03/21 02:35:22;;;;;;;5.38;4.88;;;5.30;75.50;;;;;;5017502;28;20194;-68
2022/03/21 02:37:48;;;;;;;5.18;4.28;;;5.30;75.80;;;;;;5016957;28;20198;-68
2022/03/21 02:40:16;;;;;;;6.78;5.00;;;5.30;75.90;;;;;;5016885;28;20533;-68
2022/03/21 02:42:42;;;;;;;7.30;5.43;;;5.30;76.00;;;;;;5016590;28;20174;-68
2022/03/21 02:45:08;;;;;;;6.63;4.65;;;5.20;76.60;;;;;;5016360;28;20234;-68
2022/03/21 02:47:34;;;;;;;5.88;4.80;;;5.20;77.70;;;;;;5016535;28;20218;-67
2022/03/21 02:50:01;;;;;;;9.50;5.10;;;5.10;78.00;;;;;;5033020;28;20182;-68
2022/03/21 02:52:29;;;;;;;5.45;3.80;;;5.00;78.50;;;;;;5034313;28;20205;-68
2022/03/21 02:54:55;;;;;;;8.55;5.00;;;4.90;78.60;;;;;;5035834;28;20186;-68
2022/03/21 02:57:21;;;;;;;6.40;3.40;;;4.90;79.10;;;;;;5036143;28;20261;-67
2022/03/21 02:59:46;;;;;;;7.07;4.68;;;4.80;79.50;;;;;;5036475;28;20525;-67
2022/03/21 03:02:12;;;;;;;10.03;4.90;;;4.70;79.80;;;;;;5035854;28;20190;-67
2022/03/21 03:04:39;;;;;;;8.10;5.23;;;4.80;80.30;;;;;;5019538;28;20205;-67
2022/03/21 03:07:04;;;;;;;6.95;5.47;;;4.60;80.20;;;;;;5016414;28;20175;-68
2022/03/21 03:09:30;;;;;;;8.37;4.40;;;4.60;80.80;;;;;;5016202;28;20182;-67
2022/03/21 03:11:56;;;;;;;9.13;5.53;;;4.60;81.40;;;;;;5016191;28;20202;-68
2022/03/21 03:14:22;;;;;;;5.97;4.73;;;4.60;81.60;;;;;;5015705;28;20568;-68
2022/03/21 03:16:47;;;;;;;7.33;6.10;;;4.50;81.80;;;;;;5016269;28;20166;-68
2022/03/21 03:19:13;;;;;;;6.47;5.20;;;4.50;82.60;;;;;;5016233;28;20425;-68
2022/03/21 03:21:44;;;;;;;6.33;5.73;;;4.50;82.80;;;;;;5016157;28;20643;-69
2022/03/21 03:24:11;;;;;;;5.25;4.32;;;4.50;83.10;;;;;;5015466;28;20179;-68
2022/03/21 03:26:37;;;;;;;4.30;3.78;;;4.40;83.00;;;;;;5016331;28;20182;-68
2022/03/21 03:29:03;;;;;;;8.00;4.35;;;4.40;83.30;;;;;;5015101;28;20174;-69
2022/03/21 03:31:29;;;;;;;6.85;5.00;;;4.30;83.90;;;;;;5015652;28;20553;-68
2022/03/21 03:33:56;;;;;;;5.80;5.20;;;4.20;84.00;;;;;;5027527;28;20700;-68
2022/03/21 03:36:22;;;;;;;5.70;4.30;;;4.20;84.30;;;;;;5035479;28;20416;-68
2022/03/21 03:38:48;;;;;;;4.35;4.00;;;4.20;84.50;;;;;;5035426;28;20189;-68
2022/03/21 03:41:15;;;;;;;9.35;5.38;;;4.10;84.70;;;;;;5034205;28;20182;-67
2022/03/21 03:43:43;;;;;;;4.90;4.40;;;4.00;85.20;;;;;;5035082;28;20245;-67
2022/03/21 03:46:08;;;;;;;32.03;5.90;;;4.00;85.80;;;;;;5035329;28;20193;-69
2022/03/21 03:48:34;;;;;;;4.93;4.30;;;4.00;86.40;;;;;;5033611;28;20174;-67
2022/03/21 03:51:00;;;;;;;5.17;4.70;;;3.90;86.70;;;;;;5035481;28;20490;-68
2022/03/21 03:53:26;;;;;;;5.22;3.67;;;3.90;86.70;;;;;;5035298;28;20532;-68
2022/03/21 03:55:51;;;;;;;9.37;4.63;;;3.90;87.20;;;;;;5035287;28;20197;-68
2022/03/21 03:58:17;;;;;;;5.40;4.90;;;3.90;88.00;;;;;;5035149;28;20605;-68
2022/03/21 04:00:46;;;;;;;6.80;5.07;;;3.80;88.40;;;;;;5035261;28;20170;-68
2022/03/21 04:05:56;;;;;;;5.03;4.35;;;3.80;88.60;;;;;;5034687;28;20232;-67
2022/03/21 04:08:22;;;;;;;7.25;4.95;;;3.70;88.80;;;;;;5034988;28;20552;-67
2022/03/21 04:10:47;;;;;;;5.77;5.23;;;3.70;89.10;;;;;;5034948;28;20652;-69
2022/03/21 04:13:13;;;;;;;4.27;3.47;;;3.70;89.40;;;;;;5034419;28;20523;-67
2022/03/21 04:15:39;;;;;;;4.57;4.17;;;3.60;89.30;;;;;;5034655;28;20514;-66
2022/03/21 04:18:05;;;;;;;5.50;5.00;;;3.60;89.20;;;;;;5020592;28;20179;-67
2022/03/21 04:20:31;;;;;;;6.13;5.53;;;3.60;89.20;;;;;;5014916;28;20546;-68
2022/03/21 04:22:57;;;;;;;5.43;4.55;;;3.50;88.90;;;;;;5014749;28;20629;-68
2022/03/21 04:25:23;;;;;;;10.00;4.85;;;3.50;88.90;;;;;;5013473;28;20187;-68
2022/03/21 04:27:49;;;;;;;3.53;3.27;;;3.50;88.80;;;;;;5014827;28;20218;-69
2022/03/21 04:30:15;;;;;;;6.90;4.67;;;3.50;88.90;;;;;;5015050;28;20493;-67
2022/03/21 04:32:41;;;;;;;3.80;3.40;;;3.50;89.10;;;;;;5033023;28;20286;-67
2022/03/21 04:35:07;;;;;;;6.32;5.25;;;3.50;89.90;;;;;;5033700;28;20217;-68
2022/03/21 04:37:33;;;;;;;7.07;4.65;;;3.40;90.20;;;;;;5034724;28;20181;-68
2022/03/21 04:39:59;;;;;;;4.33;3.90;;;3.40;90.40;;;;;;5034082;28;20166;-68
2022/03/21 04:42:24;;;;;;;5.77;4.27;;;3.30;90.50;;;;;;5034037;28;20170;-69
2022/03/21 04:44:51;;;;;;;5.20;4.50;;;3.30;90.70;;;;;;5033737;28;20186;-67
2022/03/21 04:47:19;;;;;;;8.93;5.85;;;3.20;90.80;;;;;;5014841;28;20277;-68
2022/03/21 04:49:44;;;;;;;5.95;4.90;;;3.20;90.90;;;;;;5014444;28;20210;-68
2022/03/21 04:52:10;;;;;;;5.77;3.93;;;3.20;91.00;;;;;;5014150;28;20308;-69
2022/03/21 04:54:35;;;;;;;8.40;4.40;;;3.20;91.10;;;;;;5013789;28;20201;-67
2022/03/21 04:57:01;;;;;;;5.03;4.53;;;3.20;91.30;;;;;;5014416;28;20170;-68
2022/03/21 04:59:27;;;;;;;6.37;5.80;;;3.20;91.60;;;;;;5015264;28;20206;-67
2022/03/21 05:01:52;;;;;;;5.87;5.27;;;3.10;91.60;;;;;;5013986;28;20194;-67
2022/03/21 05:04:22;;;;;;;4.70;4.30;;;3.20;91.70;;;;;;5012276;28;20174;-69
2022/03/21 05:06:48;;;;;;;7.25;5.32;;;3.20;91.60;;;;;;5014174;28;20163;-67
2022/03/21 05:09:14;;;;;;;4.43;3.60;;;3.20;91.60;;;;;;5014275;28;20174;-67
2022/03/21 05:11:40;;;;;;;3.20;2.90;;;3.20;91.80;;;;;;5012682;28;20589;-68
2022/03/21 05:14:05;;;;;;;5.80;3.25;;;3.20;91.80;;;;;;5022224;28;20174;-68
2022/03/21 05:16:32;;;;;;;4.87;4.37;;;3.20;91.90;;;;;;5033620;28;20170;-66
2022/03/21 05:18:58;;;;;;;6.40;5.78;;;3.20;92.10;;;;;;5034460;28;20166;-67
2022/03/21 05:21:23;;;;;;;5.73;5.17;;;3.10;92.10;;;;;;5033643;28;20609;-67
2022/03/21 05:32:02;;;;;;;5.65;3.80;;;3.20;92.10;;;;;;5013654;28;20257;-67
2022/03/21 05:37:12;;;;;;;7.70;3.78;;;3.20;92.00;;;;;;5013775;28;20176;-68
2022/03/21 05:40:31;;;;;;;5.83;5.23;;;3.30;91.90;;;;;;5013557;28;20533;-68
2022/03/21 05:42:24;;;;;;;4.32;3.90;;;3.40;91.70;;;;;;5013511;28;20417;-68
2022/03/21 05:44:49;;;;;;;6.95;4.50;;;3.40;91.60;;;;;;5031947;28;20545;-68
2022/03/21 05:47:15;;;;;;;7.00;4.60;;;3.50;91.50;;;;;;5033280;28;20166;-68
2022/03/21 05:49:40;;;;;;;7.17;4.33;;;3.60;91.30;;;;;;5032099;28;20193;-67
2022/03/21 05:52:06;;;;;;;6.43;5.30;;;3.60;91.30;;;;;;5033354;28;20205;-68
2022/03/21 05:54:32;;;;;;;5.50;5.00;;;3.70;91.30;;;;;;5035199;28;20340;-66
2022/03/21 05:56:58;;;;;;;5.90;5.20;;;3.70;91.20;;;;;;5048283;28;20173;-67
2022/03/21 06:02:12;;;;;;;5.80;5.30;;;3.80;90.90;;;;;;5045319;28;20556;-67
2022/03/21 06:04:38;;;;;;;5.50;3.83;;;3.90;90.70;;;;;;5036659;28;20188;-67
2022/03/21 06:07:04;;;;;;;6.77;5.07;;;4.00;90.60;;;;;;5037355;28;20256;-67
2022/03/21 06:09:29;;;;;;;7.10;4.45;;;4.20;90.30;;;;;;5037100;28;20249;-67
2022/03/21 06:11:55;;;;;;;9.67;4.57;;;4.30;90.20;;;;;;5036850;28;20293;-66
2022/03/21 06:14:21;;;;;;;7.33;6.70;;;4.50;89.90;;;;;;5016868;28;20171;-66
2022/03/21 06:16:48;;;;;;;8.80;6.07;;;4.70;90.00;;;;;;5017195;28;20163;-67
2022/03/21 06:19:14;;;;;;;6.22;4.78;;;4.90;89.50;;;;;;5017209;28;20409;-66
2022/03/21 06:21:40;;;;;;;8.68;6.35;;;5.10;88.30;;;;;;5017298;28;20225;-65
2022/03/21 06:24:08;;;;;;;5.90;4.47;;;5.40;87.40;;;;;;5015311;28;20183;-68
2022/03/21 06:26:34;;;;;;;6.90;5.35;;;5.60;86.30;;;;;;5015668;28;20226;-68
2022/03/21 06:29:00;;;;;;;9.15;5.40;;;5.90;85.70;;;;;;5025953;28;20182;-70
2022/03/21 06:31:26;;;;;;;6.80;5.87;;;6.40;84.60;;;;;;5016746;28;20208;-66
2022/03/21 06:33:51;;;;;;;4.37;3.83;;;6.70;82.20;;;;;;5016500;28;20227;-68
2022/03/21 06:36:18;;;;;;;8.50;5.90;;;7.00;80.80;;;;;;5017134;28;20193;-68
2022/03/21 06:38:44;;;;;;;8.98;4.75;;;7.20;81.10;;;;;;5017845;28;20169;-67
2022/03/21 06:41:10;;;;;;;6.60;5.90;;;7.50;80.50;;;;;;5016730;28;20529;-68
2022/03/21 06:43:35;;;;;;;5.53;5.03;;;7.90;80.10;;;;;;5016280;28;20202;-68
2022/03/21 06:46:01;;;;;;;9.27;5.13;;;8.20;78.80;;;;;;5015210;28;20253;-68
2022/03/21 06:48:30;;;;;;;4.80;4.30;;;8.60;77.00;;;;;;5030510;28;20417;-67
2022/03/21 06:50:55;;;;;;;4.97;4.50;;;8.80;77.70;;;;;;5036166;28;20213;-67
2022/03/21 06:53:22;;;;;;;6.53;5.40;;;9.20;75.40;;;;;;5036056;28;20625;-64
2022/03/21 06:55:48;;;;;;;7.68;5.00;;;9.70;72.80;;;;;;5036144;28;20228;-66
2022/03/21 06:58:15;;;;;;;5.43;4.85;;;9.80;71.80;;;;;;5036262;28;20170;-65
2022/03/21 07:00:41;;;;;;;6.85;5.85;;;10.10;69.00;;;;;;5034894;28;20258;-65
2022/03/21 07:03:08;;;;;;;8.77;7.88;;;10.30;68.30;;;;;;5021716;28;20183;-63
2022/03/21 07:05:37;;;;;;;6.38;5.78;;;10.40;67.40;;;;;;5015896;28;20194;-66
2022/03/21 07:08:04;;;;;;;8.07;6.60;;;10.60;67.10;;;;;;5016112;28;20258;-65
2022/03/21 07:10:32;;;;;;;8.90;6.95;;;10.90;66.00;;;;;;5016214;28;20437;-66
2022/03/21 07:13:03;;;;;;;8.97;6.20;;;11.20;65.60;;;;;;5015996;28;20698;-63
2022/03/21 07:15:29;;;;;;;6.50;5.50;;;11.50;64.80;;;;;;5015932;28;20881;-64
2022/03/21 07:17:56;;;;;;;6.07;4.73;;;12.00;65.10;;;;;;5029984;28;20431;-67
2022/03/21 07:20:22;;;;;;;6.40;5.33;;;12.50;60.70;;;;;;5035679;28;20177;-64
2022/03/21 07:22:48;;;;;;;6.60;5.30;;;12.90;60.00;;;;;;5035550;28;20779;-66
2022/03/21 07:25:14;;;;;;;8.17;5.80;;;13.20;59.20;;;;;;5035303;28;20428;-64
2022/03/21 07:27:45;;;;;;;7.57;5.30;;;13.50;58.00;;;;;;5035776;28;20568;-63
2022/03/21 07:30:12;;;;;;;9.03;5.60;;;13.60;57.60;;;;;;5035546;28;20229;-63
2022/03/21 07:32:38;;;;;;;6.00;5.50;;;13.90;57.00;;;;;;5021249;28;20488;-66
2022/03/21 07:35:04;;;;;;;6.43;5.83;;;14.20;56.00;;;;;;5031009;28;20429;-65
2022/03/21 07:37:42;;;;;;;6.17;5.10;;;14.30;56.10;;;;;;5035827;28;20400;-65
2022/03/21 07:40:10;;;;;;;8.20;7.20;;;14.50;56.00;;;;;;5026402;28;20447;-66
2022/03/21 07:42:37;;;;;;;7.37;6.67;;;14.70;55.10;;;;;;5015576;28;20782;-63
2022/03/21 07:47:48;;;;;;;7.07;5.30;;;15.10;54.50;;;;;;5016503;28;20766;-60
2022/03/21 07:50:14;;;;;;;7.80;5.90;;;15.60;54.20;;;;;;5052136;28;20747;-63
2022/03/21 07:52:39;;;;;;;8.23;6.80;;;16.00;53.30;;;;;;5050034;28;20505;-65
2022/03/21 07:55:05;;;;;;;6.97;6.30;;;16.40;52.60;;;;;;5033862;28;20198;-65
2022/03/21 07:57:31;;;;;;;6.90;6.20;;;16.60;51.40;;;;;;5033878;28;20529;-62
2022/03/21 07:59:57;;;;;;;6.77;6.10;;;16.70;51.00;;;;;;5035085;28;20974;-63
2022/03/21 08:02:25;;;;;;;8.70;6.93;;;16.50;51.30;;;;;;5034933;28;20199;-62
2022/03/21 08:04:51;;;;;;;5.80;5.20;;;16.70;51.00;;;;;;5034340;28;20194;-63
2022/03/21 08:07:16;;;;;;;6.73;6.03;;;17.00;50.70;;;;;;5034966;28;20758;-64
2022/03/21 08:09:42;;;;;;;5.67;5.07;;;17.50;50.80;;;;;;5018307;28;20233;-62
2022/03/21 08:12:09;;;;;;;7.73;6.30;;;17.90;50.50;;;;;;5015138;28;20209;-65
2022/03/21 08:14:35;;;;;;;6.73;6.07;;;18.40;50.00;;;;;;5014426;28;20499;-64
2022/03/21 08:17:02;;;;;;;5.87;5.37;;;18.80;49.10;;;;;;5016411;28;20430;-65
2022/03/21 08:19:29;;;;;;;9.27;7.13;;;19.00;48.80;;;;;;5015476;28;20843;-65
2022/03/21 08:21:55;;;;;;;7.10;6.37;;;19.30;48.70;;;;;;5015400;28;20417;-66
2022/03/21 08:24:24;;;;;;;16.50;6.53;;;19.50;48.60;;;;;;5033054;28;20421;-68
2022/03/21 08:26:50;;;;;;;7.37;6.60;;;19.80;48.10;;;;;;5034479;28;20441;-66
2022/03/21 08:29:16;;;;;;;8.50;7.07;;;20.20;47.70;;;;;;5032493;28;20930;-67
2022/03/21 08:31:43;;;;;;;7.37;6.00;;;20.60;46.80;;;;;;5033376;28;20937;-67
2022/03/21 08:34:09;;;;;;;6.80;6.10;;;21.00;46.90;;;;;;5020326;28;20445;-67
2022/03/21 08:36:35;;;;;;;7.33;6.43;;;21.20;46.20;;;;;;5014634;28;20947;-67
2022/03/21 08:39:01;;;;;;;7.23;6.53;;;21.10;46.20;;;;;;5014351;28;20410;-67
2022/03/21 08:41:27;;;;;;;7.13;6.53;;;21.40;46.00;;;;;;5020806;28;20474;-68
2022/03/21 08:43:53;;;;;;;6.60;6.00;;;21.70;45.20;;;;;;5032844;28;20490;-68
2022/03/21 08:46:19;;;;;;;7.87;7.07;;;21.90;45.70;;;;;;5032611;28;20914;-68
2022/03/21 08:51:29;;;;;;;6.73;6.10;;;22.10;44.40;;;;;;5026799;28;21004;-68
2022/03/21 08:53:55;;;;;;;7.43;6.73;;;22.20;44.90;;;;;;5019765;28;20426;-68
2022/03/21 08:56:21;;;;;;;7.53;6.73;;;22.20;43.60;;;;;;5030666;28;20186;-68
2022/03/21 08:58:46;;;;;;;8.30;7.30;;;22.00;44.00;;;;;;5028174;28;20423;-67
2022/03/21 09:01:12;;;;;;;8.73;7.83;;;22.10;43.70;;;;;;5043745;28;20197;-68
2022/03/21 09:03:38;;;;;;;7.97;7.27;;;22.40;43.40;;;;;;5047166;28;20190;-66
2022/03/21 09:06:04;;;;;;;7.63;6.90;;;22.50;43.70;;;;;;5033370;28;20232;-67
2022/03/21 09:08:29;;;;;;;8.43;7.53;;;22.60;43.60;;;;;;5033506;28;20408;-68
2022/03/21 09:10:55;;;;;;;6.70;6.03;;;22.60;43.10;;;;;;5033533;28;20200;-68
2022/03/21 09:13:21;;;;;;;9.83;6.97;;;22.70;43.30;;;;;;5031534;28;20694;-67
2022/03/21 09:15:46;;;;;;;8.93;8.03;;;22.60;43.20;;;;;;5041763;28;20193;-71
2022/03/21 09:18:12;;;;;;;9.43;8.43;;;22.60;43.60;;;;;;5019057;28;20228;-67
2022/03/21 09:20:37;;;;;;;8.70;7.03;;;22.40;43.40;;;;;;5033287;28;20174;-68
2022/03/21 09:23:04;;;;;;;6.90;6.17;;;22.20;44.30;;;;;;5037669;28;20178;-67
2022/03/21 09:25:30;;;;;;;8.27;7.37;;;22.30;44.10;;;;;;5037454;28;20205;-68
2022/03/21 09:27:55;;;;;;;8.00;6.60;;;22.70;44.10;;;;;;5038249;28;20412;-68
2022/03/21 09:30:21;;;;;;;8.87;8.07;;;23.10;43.80;;;;;;5032795;28;20182;-67
2022/03/21 09:32:46;;;;;;;8.93;7.50;;;23.30;43.00;;;;;;5030572;28;20205;-69
2022/03/21 09:35:13;;;;;;;8.50;7.80;;;23.50;43.10;;;;;;5032724;28;20213;-67
2022/03/21 09:37:39;;;;;;;9.83;8.93;;;23.70;42.90;;;;;;5021320;28;20185;-66
2022/03/21 09:40:06;;;;;;;9.53;8.60;;;23.80;42.70;;;;;;5013549;28;20881;-68
2022/03/21 09:42:33;;;;;;;11.30;8.37;;;23.50;42.10;;;;;;5014314;28;20480;-68
2022/03/21 09:44:59;;;;;;;8.20;7.40;;;23.70;42.80;;;;;;5013111;28;20454;-68
2022/03/21 09:50:12;;;;;;;8.67;7.70;;;24.30;43.00;;;;;;5033531;28;20400;-66
2022/03/21 09:52:38;;;;;;;9.83;7.57;;;24.20;41.70;;;;;;5023446;28;20963;-67
2022/03/21 09:55:08;;;;;;;9.10;7.87;;;23.80;43.30;;;;;;5012781;28;20399;-68
2022/03/21 09:57:35;;;;;;;9.27;8.40;;;23.60;42.60;;;;;;5013006;28;20416;-71
2022/03/21 10:00:01;;;;;;;9.30;7.37;;;23.70;43.80;;;;;;5013200;28;20418;-69
2022/03/21 10:02:27;;;;;;;9.97;8.23;;;23.80;43.50;;;;;;5025818;28;20423;-68
2022/03/21 10:04:55;;;;;;;10.20;8.10;;;23.80;42.90;;;;;;5013868;28;20421;-68
2022/03/21 10:07:25;;;;;;;9.83;8.23;;;23.90;42.40;;;;;;5029303;28;20190;-68
2022/03/21 10:10:16;;;;;;;9.97;8.67;;;24.00;41.60;;;;;;5032843;28;20401;-68
2022/03/21 10:12:42;;;;;;;8.93;8.10;;;23.80;42.00;;;;;;5031786;28;20457;-67
2022/03/21 10:15:10;;;;;;;8.73;7.83;;;23.70;41.90;;;;;;5029831;28;20529;-66
2022/03/21 10:17:36;;;;;;;9.30;7.90;;;23.80;42.00;;;;;;5029118;28;20395;-67
2022/03/21 10:20:04;;;;;;;10.60;8.30;;;23.50;41.50;;;;;;5024886;28;20395;-68
2022/03/21 10:22:33;;;;;;;11.33;8.33;;;22.90;41.90;;;;;;5023540;28;20763;-66
2022/03/21 10:25:20;;;;;;;8.33;7.43;;;21.80;42.50;;;;;;5030869;28;20534;-66
2022/03/21 10:27:47;;;;;;;8.77;7.87;;;21.60;42.30;;;;;;5024289;28;20419;-67
2022/03/21 10:30:22;;;;;;;8.10;7.20;;;20.90;42.50;;;;;;5034350;28;20424;-65
2022/03/21 10:32:56;;;;;;;9.70;7.83;;;20.40;43.10;;;;;;5032767;28;20442;-66
2022/03/21 10:35:32;;;;;;;8.87;7.90;;;20.30;43.50;;;;;;5014683;28;20420;-65
2022/03/21 10:37:58;;;;;;;9.37;7.93;;;20.10;44.10;;;;;;5023350;28;20723;-68
2022/03/21 10:40:30;;;;;;;7.53;6.70;;;19.80;44.20;;;;;;5036220;28;20455;-67
2022/03/21 10:43:10;;;;;;;9.60;6.27;;;19.40;44.40;;;;;;5034337;28;20398;-69
2022/03/21 10:45:44;;;;;;;9.00;7.27;;;19.40;44.90;;;;;;5016449;28;20405;-68
2022/03/21 10:48:21;;;;;;;9.40;7.00;;;19.50;45.40;;;;;;5035070;28;20397;-67
2022/03/21 10:50:47;;;;;;;10.30;7.60;;;19.60;45.20;;;;;;5036551;28;20398;-66
2022/03/21 10:53:21;;;;;;;8.10;7.30;;;19.90;45.30;;;;;;5025390;28;20891;-67
2022/03/21 10:55:48;;;;;;;10.10;7.90;;;20.40;44.90;;;;;;5017723;28;20464;-65
2022/03/21 10:58:17;;;;;;;9.43;7.50;;;20.70;44.80;;;;;;5016406;28;20418;-66
2022/03/21 11:00:43;;;;;;;8.03;7.10;;;20.80;44.50;;;;;;5016962;28;20421;-66
2022/03/21 11:03:17;;;;;;;9.43;6.80;;;20.40;44.30;;;;;;5022626;28;20447;-67
2022/03/21 11:05:47;;;;;;;8.57;6.60;;;20.00;44.50;;;;;;5019134;28;20451;-67
2022/03/21 11:08:16;;;;;;;9.43;7.70;;;19.60;45.00;;;;;;5028550;28;20439;-66
2022/03/21 11:10:42;;;;;;;8.07;6.37;;;19.50;45.10;;;;;;5034907;28;20446;-69
2022/03/21 11:13:09;;;;;;;8.00;7.20;;;19.30;45.20;;;;;;5035398;28;20500;-67
2022/03/21 11:15:37;;;;;;;11.17;7.53;;;19.20;45.50;;;;;;5035766;28;20503;-68
2022/03/21 11:18:03;;;;;;;7.33;6.53;;;19.10;46.40;;;;;;5035852;28;20380;-68
2022/03/21 11:20:29;;;;;;;10.10;7.30;;;19.20;45.90;;;;;;5035702;28;20773;-67
2022/03/21 11:22:56;;;;;;;8.30;7.13;;;18.90;46.30;;;;;;5035723;28;20414;-68
2022/03/21 11:25:25;;;;;;;8.40;6.40;;;18.70;46.30;;;;;;5032530;28;20437;-67
2022/03/21 11:28:09;;;;;;;8.43;7.40;;;18.50;47.60;;;;;;5015983;28;20765;-67
2022/03/21 11:30:47;;;;;;;7.43;6.63;;;18.10;47.20;;;;;;5016125;28;20382;-67
2022/03/21 11:33:46;;;;;;;10.87;6.77;;;17.80;48.00;;;;;;5014242;28;20425;-67
2022/03/21 11:36:12;;;;;;;9.80;7.50;;;17.70;49.50;;;;;;5015593;28;20418;-67
2022/03/21 11:38:45;;;;;;;12.17;7.27;;;17.50;48.90;;;;;;5015683;28;20478;-67
2022/03/21 11:41:15;;;;;;;8.80;6.60;;;17.50;48.50;;;;;;5026914;28;20424;-68
2022/03/21 11:43:43;;;;;;;8.30;6.23;;;17.50;48.80;;;;;;5035010;28;20436;-67
2022/03/21 11:46:29;;;;;;;7.43;6.03;;;17.30;48.90;;;;;;5035566;28;20813;-68
2022/03/21 11:48:55;;;;;;;10.80;7.20;;;17.10;48.40;;;;;;5035569;28;20428;-67
2022/03/21 11:51:23;;;;;;;7.87;7.07;;;17.10;49.00;;;;;;5034287;28;20448;-67
2022/03/21 11:53:50;;;;;;;9.10;7.10;;;17.20;49.70;;;;;;5034741;28;20426;-66
2022/03/21 11:56:36;;;;;;;11.33;7.80;;;17.10;49.20;;;;;;5020528;28;20525;-67
2022/03/21 11:59:03;;;;;;;9.83;7.43;;;17.10;49.50;;;;;;5014250;28;20476;-67
2022/03/21 12:01:29;;;;;;;10.20;7.10;;;17.10;50.60;;;;;;5014999;28;20452;-67
2022/03/21 12:03:55;;;;;;;8.70;6.83;;;17.10;50.50;;;;;;5014669;28;20395;-67
2022/03/21 12:06:29;;;;;;;9.23;7.20;;;17.10;50.10;;;;;;5013769;28;20961;-67
2022/03/21 12:08:56;;;;;;;9.10;6.10;;;17.20;50.20;;;;;;5015014;28;20771;-71
2022/03/21 12:11:39;;;;;;;8.73;7.27;;;17.30;49.70;;;;;;5030732;28;20781;-72
2022/03/21 12:14:29;;;;;;;8.90;8.07;;;17.30;49.90;;;;;;5014460;28;20479;-68
2022/03/21 12:17:00;;;;;;;8.77;7.23;;;17.30;49.30;;;;;;5018529;28;20412;-68
2022/03/21 12:19:47;;;;;;;9.87;7.23;;;17.30;49.60;;;;;;5034523;28;20378;-69
2022/03/21 12:22:29;;;;;;;7.40;6.63;;;17.30;50.30;;;;;;5027902;28;20809;-68
2022/03/21 12:25:10;;;;;;;10.93;6.63;;;17.40;49.90;;;;;;5013986;28;20426;-67
2022/03/21 12:27:39;;;;;;;15.10;8.17;;;17.40;49.60;;;;;;5012972;28;20790;-67
2022/03/21 12:30:23;;;;;;;11.73;6.90;;;17.50;50.80;;;;;;5021872;28;20429;-67
2022/03/21 12:33:01;;;;;;;8.93;8.07;;;17.50;50.70;;;;;;5019878;28;20482;-67
2022/03/21 12:35:32;;;;;;;7.40;6.70;;;17.70;50.30;;;;;;5014782;28;20989;-67
2022/03/21 12:38:20;;;;;;;9.73;6.83;;;17.80;48.30;;;;;;5014572;28;20409;-66
2022/03/21 12:40:52;;;;;;;9.00;6.63;;;17.80;48.50;;;;;;5023683;28;20431;-67
2022/03/21 12:43:23;;;;;;;11.57;6.97;;;17.90;48.10;;;;;;5012738;28;20425;-67
2022/03/21 12:45:53;;;;;;;7.50;5.60;;;17.80;48.10;;;;;;5027858;28;20917;-68
2022/03/21 12:48:19;;;;;;;6.77;5.73;;;17.80;48.40;;;;;;5034063;28;20411;-68
2022/03/21 12:50:49;;;;;;;6.57;5.90;;;17.80;48.70;;;;;;5021322;28;20753;-67
2022/03/21 12:53:18;;;;;;;8.33;7.00;;;17.80;48.90;;;;;;5013991;28;20423;-66
2022/03/21 12:55:45;;;;;;;9.60;7.00;;;17.80;49.00;;;;;;5025137;28;20449;-66
2022/03/21 12:58:13;;;;;;;13.23;6.93;;;17.80;49.20;;;;;;5013704;28;20427;-66
2022/03/21 13:00:41;;;;;;;8.93;7.23;;;17.70;48.70;;;;;;5025659;28;20417;-67
2022/03/21 13:03:10;;;;;;;12.40;5.70;;;17.70;48.60;;;;;;5032967;28;20522;-67
2022/03/21 13:11:32;;;;;;;8.30;6.33;;;17.60;48.90;;;;;;5014992;28;20932;-67
2022/03/21 13:14:13;;;;;;;9.00;7.00;;;17.60;49.40;;;;;;5026683;28;20401;-68
2022/03/21 13:16:46;;;;;;;6.60;4.83;;;17.60;49.30;;;;;;5030034;28;20424;-67
2022/03/21 13:19:20;;;;;;;7.47;6.53;;;17.70;49.30;;;;;;5014490;28;20875;-67
2022/03/21 13:21:50;;;;;;;6.43;5.80;;;17.70;49.40;;;;;;5013929;28;20410;-67
2022/03/21 13:24:48;;;;;;;8.97;6.80;;;17.60;49.00;;;;;;5017756;28;20397;-67